Skip Navigation Links Skip Navigation Links

Current Weather

San Francisco International, San Francisco

For information only: do not use for flight planning or navigation.
Latest weather
Observation time Thursday, October 28, 2021 3:56 AM PDT
Local time Thursday, October 28, 2021 4:30 AM PDT
Flight conditions Visual Meteorological Conditions
Winds
Wind speed calm
Visibility 10 mi.
Sky condition
Ceiling unlimited
Cloud layer few clouds 500 ft.
Temperature 58°F
Dewpoint 55°F
Altimeter 30.17 in.Hg
Derived measurements
Relative humidity 90%
Density altitude -136 ft.
Sea-level pressure 30.17 in.Hg
Remarks
Automated weather observing station with precipitation discriminator.
METAR KSFO 281056Z 00000KT 10SM FEW005 14/13 A3017 RMK AO2 SLP217 T01440128

Settings

Location code

InnerDrive.Weather 4.0.6770.0 Release CLR 4.0.30319.42000
Copyright ©2018 Inner Drive Technology. All rights reserved. Portions Copyright ©1986-2018 David Braverman.

Find weather

Site navigation


Skip Navigation Links

Place info

Page info

PayPal - The safer, easier way to pay online!

Return home.

Copyright ©2021 Inner Drive Technology. Purveyors of fine, hand-crafted computer software. Page printed 2021-10-28T11:30:50 UTC.